sensor_id;sensor_type;location;lat;lon;timestamp;temperature;humidity
79065;DHT22;68469;51.502;7.462;2023-08-06T00:02:05;15.30;99.90
79065;DHT22;68469;51.502;7.462;2023-08-06T00:04:30;15.30;99.90
79065;DHT22;68469;51.502;7.462;2023-08-06T00:06:56;15.30;99.90
79065;DHT22;68469;51.502;7.462;2023-08-06T00:09:21;15.30;99.90
79065;DHT22;68469;51.502;7.462;2023-08-06T00:11:47;15.30;99.90
79065;DHT22;68469;51.502;7.462;2023-08-06T00:14:13;15.30;99.90
79065;DHT22;68469;51.502;7.462;2023-08-06T00:16:43;15.30;99.90
79065;DHT22;68469;51.502;7.462;2023-08-06T00:19:09;15.30;99.90
79065;DHT22;68469;51.502;7.462;2023-08-06T00:21:34;15.30;99.90
79065;DHT22;68469;51.502;7.462;2023-08-06T00:24:00;15.20;99.90
79065;DHT22;68469;51.502;7.462;2023-08-06T00:26:25;15.20;99.90
79065;DHT22;68469;51.502;7.462;2023-08-06T00:28:51;15.20;99.90
79065;DHT22;68469;51.502;7.462;2023-08-06T00:31:17;15.20;99.90
79065;DHT22;68469;51.502;7.462;2023-08-06T00:33:42;15.30;99.90
79065;DHT22;68469;51.502;7.462;2023-08-06T00:36:08;15.30;99.90
79065;DHT22;68469;51.502;7.462;2023-08-06T00:38:33;15.30;99.90
79065;DHT22;68469;51.502;7.462;2023-08-06T00:40:59;15.30;99.90
79065;DHT22;68469;51.502;7.462;2023-08-06T00:43:24;15.30;99.90
79065;DHT22;68469;51.502;7.462;2023-08-06T00:45:50;15.30;99.90
79065;DHT22;68469;51.502;7.462;2023-08-06T00:48:16;15.30;99.90
79065;DHT22;68469;51.502;7.462;2023-08-06T00:50:42;15.30;99.90
79065;DHT22;68469;51.502;7.462;2023-08-06T00:53:08;15.30;99.90
79065;DHT22;68469;51.502;7.462;2023-08-06T00:55:34;15.30;99.90
79065;DHT22;68469;51.502;7.462;2023-08-06T00:58:00;15.30;99.90
79065;DHT22;68469;51.502;7.462;2023-08-06T01:00:26;15.30;99.90
79065;DHT22;68469;51.502;7.462;2023-08-06T01:02:53;15.20;99.90
79065;DHT22;68469;51.502;7.462;2023-08-06T01:05:20;15.20;99.90
79065;DHT22;68469;51.502;7.462;2023-08-06T01:16:21;15.10;99.90
79065;DHT22;68469;51.502;7.462;2023-08-06T01:18:49;15.10;99.90
79065;DHT22;68469;51.502;7.462;2023-08-06T01:21:18;15.10;99.90
79065;DHT22;68469;51.502;7.462;2023-08-06T01:23:44;15.10;99.90
79065;DHT22;68469;51.502;7.462;2023-08-06T01:31:38;15.10;99.90
79065;DHT22;68469;51.502;7.462;2023-08-06T01:34:10;15.00;99.90
79065;DHT22;68469;51.502;7.462;2023-08-06T01:36:38;15.10;99.90
79065;DHT22;68469;51.502;7.462;2023-08-06T01:39:05;15.00;99.90
79065;DHT22;68469;51.502;7.462;2023-08-06T01:41:31;15.00;99.90
79065;DHT22;68469;51.502;7.462;2023-08-06T01:43:56;15.00;99.90
79065;DHT22;68469;51.502;7.462;2023-08-06T01:46:22;15.00;99.90
79065;DHT22;68469;51.502;7.462;2023-08-06T01:48:47;15.00;99.90
79065;DHT22;68469;51.502;7.462;2023-08-06T01:51:13;15.00;99.90
79065;DHT22;68469;51.502;7.462;2023-08-06T01:53:39;15.00;99.90
79065;DHT22;68469;51.502;7.462;2023-08-06T01:56:04;15.10;99.90
79065;DHT22;68469;51.502;7.462;2023-08-06T01:58:30;15.10;99.90
79065;DHT22;68469;51.502;7.462;2023-08-06T02:00:55;15.10;99.90
79065;DHT22;68469;51.502;7.462;2023-08-06T02:03:21;15.10;99.90
79065;DHT22;68469;51.502;7.462;2023-08-06T02:05:47;15.10;99.90
79065;DHT22;68469;51.502;7.462;2023-08-06T02:08:12;15.10;99.90
79065;DHT22;68469;51.502;7.462;2023-08-06T02:10:38;15.10;99.90
79065;DHT22;68469;51.502;7.462;2023-08-06T02:13:03;15.10;99.90
79065;DHT22;68469;51.502;7.462;2023-08-06T02:15:29;15.10;99.90
79065;DHT22;68469;51.502;7.462;2023-08-06T02:17:55;15.10;99.90
79065;DHT22;68469;51.502;7.462;2023-08-06T02:20:21;15.10;99.90
79065;DHT22;68469;51.502;7.462;2023-08-06T02:22:46;15.00;99.90
79065;DHT22;68469;51.502;7.462;2023-08-06T02:25:12;15.00;99.90
79065;DHT22;68469;51.502;7.462;2023-08-06T02:27:37;15.00;99.90
79065;DHT22;68469;51.502;7.462;2023-08-06T02:30:04;15.00;99.90
79065;DHT22;68469;51.502;7.462;2023-08-06T02:32:30;14.90;99.90
79065;DHT22;68469;51.502;7.462;2023-08-06T02:34:57;14.90;99.90
79065;DHT22;68469;51.502;7.462;2023-08-06T02:37:23;14.90;99.90
79065;DHT22;68469;51.502;7.462;2023-08-06T02:39:48;14.90;99.90
79065;DHT22;68469;51.502;7.462;2023-08-06T02:42:14;14.80;99.90
79065;DHT22;68469;51.502;7.462;2023-08-06T02:44:40;14.90;99.90
79065;DHT22;68469;51.502;7.462;2023-08-06T02:47:06;14.90;99.90
79065;DHT22;68469;51.502;7.462;2023-08-06T02:49:31;14.90;99.90
79065;DHT22;68469;51.502;7.462;2023-08-06T02:51:57;14.80;99.90
79065;DHT22;68469;51.502;7.462;2023-08-06T02:54:22;14.90;99.90
79065;DHT22;68469;51.502;7.462;2023-08-06T02:56:48;14.80;99.90
79065;DHT22;68469;51.502;7.462;2023-08-06T02:59:14;14.80;99.90
79065;DHT22;68469;51.502;7.462;2023-08-06T03:01:40;14.80;99.90
79065;DHT22;68469;51.502;7.462;2023-08-06T03:04:05;14.80;99.90
79065;DHT22;68469;51.502;7.462;2023-08-06T03:06:31;14.80;99.90
79065;DHT22;68469;51.502;7.462;2023-08-06T03:08:57;14.80;99.90
79065;DHT22;68469;51.502;7.462;2023-08-06T03:11:23;14.80;99.90
79065;DHT22;68469;51.502;7.462;2023-08-06T03:13:48;14.80;99.90
79065;DHT22;68469;51.502;7.462;2023-08-06T03:16:14;14.80;99.90
79065;DHT22;68469;51.502;7.462;2023-08-06T03:18:40;14.70;99.90
79065;DHT22;68469;51.502;7.462;2023-08-06T03:21:06;14.70;99.90
79065;DHT22;68469;51.502;7.462;2023-08-06T03:23:31;14.70;99.90
79065;DHT22;68469;51.502;7.462;2023-08-06T03:26:04;14.70;99.90
79065;DHT22;68469;51.502;7.462;2023-08-06T03:28:29;14.70;99.90
79065;DHT22;68469;51.502;7.462;2023-08-06T03:30:59;14.60;99.90
79065;DHT22;68469;51.502;7.462;2023-08-06T03:33:25;14.60;99.90
79065;DHT22;68469;51.502;7.462;2023-08-06T03:35:51;14.60;99.90
79065;DHT22;68469;51.502;7.462;2023-08-06T03:38:16;14.60;99.90
79065;DHT22;68469;51.502;7.462;2023-08-06T03:40:42;14.60;99.90
79065;DHT22;68469;51.502;7.462;2023-08-06T03:43:08;14.50;99.90
79065;DHT22;68469;51.502;7.462;2023-08-06T03:45:34;14.50;99.90
79065;DHT22;68469;51.502;7.462;2023-08-06T03:47:59;14.50;99.90
79065;DHT22;68469;51.502;7.462;2023-08-06T03:50:25;14.50;99.90
79065;DHT22;68469;51.502;7.462;2023-08-06T03:52:51;14.50;99.90
79065;DHT22;68469;51.502;7.462;2023-08-06T03:55:16;14.50;99.90
79065;DHT22;68469;51.502;7.462;2023-08-06T03:57:42;14.50;99.90
79065;DHT22;68469;51.502;7.462;2023-08-06T04:00:08;14.50;99.90
79065;DHT22;68469;51.502;7.462;2023-08-06T04:02:33;14.50;99.90
79065;DHT22;68469;51.502;7.462;2023-08-06T04:05:00;14.50;99.90
79065;DHT22;68469;51.502;7.462;2023-08-06T04:07:26;14.50;99.90
79065;DHT22;68469;51.502;7.462;2023-08-06T04:10:00;14.50;99.90
79065;DHT22;68469;51.502;7.462;2023-08-06T04:12:27;14.50;99.90
79065;DHT22;68469;51.502;7.462;2023-08-06T04:14:53;14.50;99.90
79065;DHT22;68469;51.502;7.462;2023-08-06T04:17:20;14.50;99.90
79065;DHT22;68469;51.502;7.462;2023-08-06T04:19:47;14.50;99.90
79065;DHT22;68469;51.502;7.462;2023-08-06T04:22:13;14.50;99.90
79065;DHT22;68469;51.502;7.462;2023-08-06T04:24:38;14.50;99.90
79065;DHT22;68469;51.502;7.462;2023-08-06T04:27:04;14.50;99.90
79065;DHT22;68469;51.502;7.462;2023-08-06T04:29:30;14.50;99.90
79065;DHT22;68469;51.502;7.462;2023-08-06T04:31:55;14.50;99.90
79065;DHT22;68469;51.502;7.462;2023-08-06T04:34:21;14.50;99.90
79065;DHT22;68469;51.502;7.462;2023-08-06T04:36:47;14.50;99.90
79065;DHT22;68469;51.502;7.462;2023-08-06T04:39:12;14.40;99.90
79065;DHT22;68469;51.502;7.462;2023-08-06T04:41:38;14.40;99.90
79065;DHT22;68469;51.502;7.462;2023-08-06T04:44:03;14.40;99.90
79065;DHT22;68469;51.502;7.462;2023-08-06T04:46:29;14.40;99.90
79065;DHT22;68469;51.502;7.462;2023-08-06T04:48:55;14.40;99.90
79065;DHT22;68469;51.502;7.462;2023-08-06T04:51:20;14.40;99.90
79065;DHT22;68469;51.502;7.462;2023-08-06T04:53:46;14.40;99.90
79065;DHT22;68469;51.502;7.462;2023-08-06T04:56:12;14.40;99.90
79065;DHT22;68469;51.502;7.462;2023-08-06T04:58:37;14.50;99.90
79065;DHT22;68469;51.502;7.462;2023-08-06T05:01:03;14.50;99.90
79065;DHT22;68469;51.502;7.462;2023-08-06T05:03:28;14.60;99.90
79065;DHT22;68469;51.502;7.462;2023-08-06T05:05:54;14.60;99.90
79065;DHT22;68469;51.502;7.462;2023-08-06T05:08:20;14.70;99.90
79065;DHT22;68469;51.502;7.462;2023-08-06T05:10:46;14.70;99.90
79065;DHT22;68469;51.502;7.462;2023-08-06T05:13:12;14.80;99.90
79065;DHT22;68469;51.502;7.462;2023-08-06T05:15:37;14.80;99.90
79065;DHT22;68469;51.502;7.462;2023-08-06T05:18:05;14.80;99.90
79065;DHT22;68469;51.502;7.462;2023-08-06T05:20:30;14.90;99.90
79065;DHT22;68469;51.502;7.462;2023-08-06T05:22:56;15.00;99.90
79065;DHT22;68469;51.502;7.462;2023-08-06T05:25:22;14.90;99.90
79065;DHT22;68469;51.502;7.462;2023-08-06T05:27:47;15.00;99.90
79065;DHT22;68469;51.502;7.462;2023-08-06T05:30:13;14.90;99.90
79065;DHT22;68469;51.502;7.462;2023-08-06T05:32:38;14.90;99.90
79065;DHT22;68469;51.502;7.462;2023-08-06T05:35:04;14.90;99.90
79065;DHT22;68469;51.502;7.462;2023-08-06T05:37:30;15.00;99.90
79065;DHT22;68469;51.502;7.462;2023-08-06T05:39:55;15.10;99.90
79065;DHT22;68469;51.502;7.462;2023-08-06T05:42:21;15.10;99.90
79065;DHT22;68469;51.502;7.462;2023-08-06T05:44:47;15.20;99.90
79065;DHT22;68469;51.502;7.462;2023-08-06T05:47:13;15.20;99.90
79065;DHT22;68469;51.502;7.462;2023-08-06T05:49:38;15.30;99.90
79065;DHT22;68469;51.502;7.462;2023-08-06T05:52:04;15.40;99.90
79065;DHT22;68469;51.502;7.462;2023-08-06T05:54:32;15.50;99.90
79065;DHT22;68469;51.502;7.462;2023-08-06T05:56:57;15.60;99.90
79065;DHT22;68469;51.502;7.462;2023-08-06T05:59:26;15.80;99.90
79065;DHT22;68469;51.502;7.462;2023-08-06T06:01:51;16.20;99.90
79065;DHT22;68469;51.502;7.462;2023-08-06T06:04:17;16.60;99.90
79065;DHT22;68469;51.502;7.462;2023-08-06T06:06:42;16.80;99.90
79065;DHT22;68469;51.502;7.462;2023-08-06T06:09:08;17.10;99.90
79065;DHT22;68469;51.502;7.462;2023-08-06T06:11:33;17.50;99.90
79065;DHT22;68469;51.502;7.462;2023-08-06T06:13:59;17.60;99.90
79065;DHT22;68469;51.502;7.462;2023-08-06T06:16:25;17.60;99.90
79065;DHT22;68469;51.502;7.462;2023-08-06T06:18:51;17.70;99.90
79065;DHT22;68469;51.502;7.462;2023-08-06T06:21:17;17.80;99.90
79065;DHT22;68469;51.502;7.462;2023-08-06T06:23:42;17.90;99.90
79065;DHT22;68469;51.502;7.462;2023-08-06T06:26:08;17.90;99.90
79065;DHT22;68469;51.502;7.462;2023-08-06T06:28:33;17.90;99.90
79065;DHT22;68469;51.502;7.462;2023-08-06T06:31:02;17.80;99.90
79065;DHT22;68469;51.502;7.462;2023-08-06T06:33:29;17.70;99.90
79065;DHT22;68469;51.502;7.462;2023-08-06T06:35:54;17.60;99.90
79065;DHT22;68469;51.502;7.462;2023-08-06T06:38:20;17.60;99.90
79065;DHT22;68469;51.502;7.462;2023-08-06T06:40:58;17.60;99.90
79065;DHT22;68469;51.502;7.462;2023-08-06T06:43:24;17.70;99.90
79065;DHT22;68469;51.502;7.462;2023-08-06T06:45:56;17.70;99.90
79065;DHT22;68469;51.502;7.462;2023-08-06T06:48:25;17.80;99.90
79065;DHT22;68469;51.502;7.462;2023-08-06T06:50:50;17.90;99.90
79065;DHT22;68469;51.502;7.462;2023-08-06T06:53:16;17.90;99.90
79065;DHT22;68469;51.502;7.462;2023-08-06T06:55:42;17.90;99.90
79065;DHT22;68469;51.502;7.462;2023-08-06T06:58:07;18.10;99.90
79065;DHT22;68469;51.502;7.462;2023-08-06T07:00:36;18.20;99.90
79065;DHT22;68469;51.502;7.462;2023-08-06T07:03:01;18.30;99.90
79065;DHT22;68469;51.502;7.462;2023-08-06T07:05:27;18.30;99.90
79065;DHT22;68469;51.502;7.462;2023-08-06T07:07:53;18.20;99.90
79065;DHT22;68469;51.502;7.462;2023-08-06T07:10:18;18.20;99.90
79065;DHT22;68469;51.502;7.462;2023-08-06T07:12:44;18.20;99.90
79065;DHT22;68469;51.502;7.462;2023-08-06T07:15:12;18.10;99.90
79065;DHT22;68469;51.502;7.462;2023-08-06T07:17:37;18.10;99.90
79065;DHT22;68469;51.502;7.462;2023-08-06T07:20:04;18.00;99.90
79065;DHT22;68469;51.502;7.462;2023-08-06T07:22:29;18.00;99.90
79065;DHT22;68469;51.502;7.462;2023-08-06T07:24:55;18.00;99.90
79065;DHT22;68469;51.502;7.462;2023-08-06T07:27:21;18.00;99.90
79065;DHT22;68469;51.502;7.462;2023-08-06T07:29:46;18.10;99.90
79065;DHT22;68469;51.502;7.462;2023-08-06T07:32:13;18.10;99.90
79065;DHT22;68469;51.502;7.462;2023-08-06T07:34:39;18.20;99.90
79065;DHT22;68469;51.502;7.462;2023-08-06T07:37:04;18.20;99.90
79065;DHT22;68469;51.502;7.462;2023-08-06T07:39:31;18.20;99.90
79065;DHT22;68469;51.502;7.462;2023-08-06T07:41:56;18.20;99.90
79065;DHT22;68469;51.502;7.462;2023-08-06T07:44:22;18.20;99.90
79065;DHT22;68469;51.502;7.462;2023-08-06T07:46:49;18.30;99.90
79065;DHT22;68469;51.502;7.462;2023-08-06T07:49:14;18.30;99.90
79065;DHT22;68469;51.502;7.462;2023-08-06T07:51:40;18.40;99.90
79065;DHT22;68469;51.502;7.462;2023-08-06T07:54:06;18.40;99.90
79065;DHT22;68469;51.502;7.462;2023-08-06T07:56:31;18.40;99.90
79065;DHT22;68469;51.502;7.462;2023-08-06T07:58:57;18.50;99.90
79065;DHT22;68469;51.502;7.462;2023-08-06T08:01:23;18.50;99.90
79065;DHT22;68469;51.502;7.462;2023-08-06T08:03:48;18.40;99.90
79065;DHT22;68469;51.502;7.462;2023-08-06T08:06:14;18.40;99.90
79065;DHT22;68469;51.502;7.462;2023-08-06T08:08:39;18.40;99.90
79065;DHT22;68469;51.502;7.462;2023-08-06T08:11:05;18.40;99.90
79065;DHT22;68469;51.502;7.462;2023-08-06T08:13:31;18.30;99.90
79065;DHT22;68469;51.502;7.462;2023-08-06T08:16:00;18.30;99.90
79065;DHT22;68469;51.502;7.462;2023-08-06T08:18:26;18.30;99.90
79065;DHT22;68469;51.502;7.462;2023-08-06T08:20:51;18.30;99.90
79065;DHT22;68469;51.502;7.462;2023-08-06T08:23:17;18.30;99.90
79065;DHT22;68469;51.502;7.462;2023-08-06T08:25:43;18.20;99.90
79065;DHT22;68469;51.502;7.462;2023-08-06T08:28:08;18.20;99.90
79065;DHT22;68469;51.502;7.462;2023-08-06T08:30:34;18.20;99.90
79065;DHT22;68469;51.502;7.462;2023-08-06T08:33:00;18.20;99.90
79065;DHT22;68469;51.502;7.462;2023-08-06T08:35:25;18.10;99.90
79065;DHT22;68469;51.502;7.462;2023-08-06T08:37:51;18.20;99.90
79065;DHT22;68469;51.502;7.462;2023-08-06T08:40:17;18.30;99.90
79065;DHT22;68469;51.502;7.462;2023-08-06T08:42:43;18.40;99.90
79065;DHT22;68469;51.502;7.462;2023-08-06T08:45:14;18.50;99.90
79065;DHT22;68469;51.502;7.462;2023-08-06T08:47:43;18.60;99.90
79065;DHT22;68469;51.502;7.462;2023-08-06T08:50:10;18.80;99.90
79065;DHT22;68469;51.502;7.462;2023-08-06T08:52:40;18.90;99.90
79065;DHT22;68469;51.502;7.462;2023-08-06T08:55:07;18.90;99.90
79065;DHT22;68469;51.502;7.462;2023-08-06T08:57:33;18.90;99.90
79065;DHT22;68469;51.502;7.462;2023-08-06T08:59:59;18.90;99.90
79065;DHT22;68469;51.502;7.462;2023-08-06T09:02:28;18.90;99.90
79065;DHT22;68469;51.502;7.462;2023-08-06T09:04:56;18.90;99.90
79065;DHT22;68469;51.502;7.462;2023-08-06T09:07:25;19.00;99.90
79065;DHT22;68469;51.502;7.462;2023-08-06T09:09:52;19.00;99.90
79065;DHT22;68469;51.502;7.462;2023-08-06T09:12:18;19.00;99.90
79065;DHT22;68469;51.502;7.462;2023-08-06T09:14:44;19.00;99.90
79065;DHT22;68469;51.502;7.462;2023-08-06T09:17:10;19.00;99.90
79065;DHT22;68469;51.502;7.462;2023-08-06T09:19:36;19.00;99.90
79065;DHT22;68469;51.502;7.462;2023-08-06T09:22:02;18.90;99.90
79065;DHT22;68469;51.502;7.462;2023-08-06T09:24:28;18.80;99.90
79065;DHT22;68469;51.502;7.462;2023-08-06T09:26:54;18.60;99.90
79065;DHT22;68469;51.502;7.462;2023-08-06T09:29:20;18.50;99.90
79065;DHT22;68469;51.502;7.462;2023-08-06T09:31:47;18.40;99.90
79065;DHT22;68469;51.502;7.462;2023-08-06T09:34:23;18.30;99.90
79065;DHT22;68469;51.502;7.462;2023-08-06T09:36:53;18.30;99.90
79065;DHT22;68469;51.502;7.462;2023-08-06T09:39:20;18.20;99.90
79065;DHT22;68469;51.502;7.462;2023-08-06T09:41:48;18.10;99.90
79065;DHT22;68469;51.502;7.462;2023-08-06T09:44:21;18.10;99.90
79065;DHT22;68469;51.502;7.462;2023-08-06T09:46:53;18.10;99.90
79065;DHT22;68469;51.502;7.462;2023-08-06T09:49:20;18.00;99.90
79065;DHT22;68469;51.502;7.462;2023-08-06T09:51:50;18.00;99.90
79065;DHT22;68469;51.502;7.462;2023-08-06T09:54:17;18.10;99.90
79065;DHT22;68469;51.502;7.462;2023-08-06T09:56:46;18.10;99.90
79065;DHT22;68469;51.502;7.462;2023-08-06T09:59:13;18.20;99.90
79065;DHT22;68469;51.502;7.462;2023-08-06T10:01:39;18.30;99.90
79065;DHT22;68469;51.502;7.462;2023-08-06T10:04:06;18.40;99.90
79065;DHT22;68469;51.502;7.462;2023-08-06T10:06:37;18.50;99.90
79065;DHT22;68469;51.502;7.462;2023-08-06T10:09:06;18.60;99.90
79065;DHT22;68469;51.502;7.462;2023-08-06T10:11:31;18.80;99.90
79065;DHT22;68469;51.502;7.462;2023-08-06T10:14:10;18.90;99.90
79065;DHT22;68469;51.502;7.462;2023-08-06T10:16:39;19.10;99.90
79065;DHT22;68469;51.502;7.462;2023-08-06T10:19:09;19.20;99.90
79065;DHT22;68469;51.502;7.462;2023-08-06T10:21:35;19.40;99.90
79065;DHT22;68469;51.502;7.462;2023-08-06T10:24:00;19.50;99.90
79065;DHT22;68469;51.502;7.462;2023-08-06T10:26:29;19.60;99.90
79065;DHT22;68469;51.502;7.462;2023-08-06T10:28:55;19.70;99.90
79065;DHT22;68469;51.502;7.462;2023-08-06T10:31:53;19.90;99.90
79065;DHT22;68469;51.502;7.462;2023-08-06T10:34:20;20.20;99.90
79065;DHT22;68469;51.502;7.462;2023-08-06T10:36:46;20.70;99.90
79065;DHT22;68469;51.502;7.462;2023-08-06T10:39:15;21.20;99.90
79065;DHT22;68469;51.502;7.462;2023-08-06T10:41:42;21.70;99.90
79065;DHT22;68469;51.502;7.462;2023-08-06T10:44:09;22.00;99.90
79065;DHT22;68469;51.502;7.462;2023-08-06T10:46:37;22.20;99.90
79065;DHT22;68469;51.502;7.462;2023-08-06T10:49:03;22.40;99.40
79065;DHT22;68469;51.502;7.462;2023-08-06T10:51:30;22.50;96.30
79065;DHT22;68469;51.502;7.462;2023-08-06T10:53:56;22.70;93.60
79065;DHT22;68469;51.502;7.462;2023-08-06T10:56:25;22.90;90.80
79065;DHT22;68469;51.502;7.462;2023-08-06T10:58:54;24.20;90.20
79065;DHT22;68469;51.502;7.462;2023-08-06T11:01:22;26.00;79.90
79065;DHT22;68469;51.502;7.462;2023-08-06T11:03:47;28.10;73.70
79065;DHT22;68469;51.502;7.462;2023-08-06T11:06:19;29.80;62.90
79065;DHT22;68469;51.502;7.462;2023-08-06T11:08:52;29.80;58.20
79065;DHT22;68469;51.502;7.462;2023-08-06T11:11:19;29.00;56.40
79065;DHT22;68469;51.502;7.462;2023-08-06T11:13:47;28.10;60.80
79065;DHT22;68469;51.502;7.462;2023-08-06T11:16:14;27.40;63.60
79065;DHT22;68469;51.502;7.462;2023-08-06T11:18:41;26.70;65.40
79065;DHT22;68469;51.502;7.462;2023-08-06T11:21:09;25.90;66.90
79065;DHT22;68469;51.502;7.462;2023-08-06T11:23:37;25.10;72.30
79065;DHT22;68469;51.502;7.462;2023-08-06T11:26:03;24.50;72.80
79065;DHT22;68469;51.502;7.462;2023-08-06T11:28:28;23.90;74.30
79065;DHT22;68469;51.502;7.462;2023-08-06T11:30:54;23.40;74.20
79065;DHT22;68469;51.502;7.462;2023-08-06T11:33:27;23.10;77.80
79065;DHT22;68469;51.502;7.462;2023-08-06T11:35:57;22.90;79.40
79065;DHT22;68469;51.502;7.462;2023-08-06T11:38:28;22.60;79.00
79065;DHT22;68469;51.502;7.462;2023-08-06T11:40:54;22.50;84.00
79065;DHT22;68469;51.502;7.462;2023-08-06T11:43:20;22.30;82.30
79065;DHT22;68469;51.502;7.462;2023-08-06T11:45:50;22.10;80.30
79065;DHT22;68469;51.502;7.462;2023-08-06T11:48:18;22.00;82.40
79065;DHT22;68469;51.502;7.462;2023-08-06T11:50:44;22.00;83.70
79065;DHT22;68469;51.502;7.462;2023-08-06T11:53:13;22.10;84.90
79065;DHT22;68469;51.502;7.462;2023-08-06T11:55:39;22.10;85.30
79065;DHT22;68469;51.502;7.462;2023-08-06T11:58:05;22.10;83.20
79065;DHT22;68469;51.502;7.462;2023-08-06T12:00:31;22.00;80.80
79065;DHT22;68469;51.502;7.462;2023-08-06T12:02:57;21.90;81.50
79065;DHT22;68469;51.502;7.462;2023-08-06T12:05:28;21.80;84.50
79065;DHT22;68469;51.502;7.462;2023-08-06T12:07:58;21.70;83.30
79065;DHT22;68469;51.502;7.462;2023-08-06T12:10:25;21.70;87.30
79065;DHT22;68469;51.502;7.462;2023-08-06T12:12:51;21.70;84.50
79065;DHT22;68469;51.502;7.462;2023-08-06T12:15:17;21.60;85.20
79065;DHT22;68469;51.502;7.462;2023-08-06T12:17:43;21.60;86.30
79065;DHT22;68469;51.502;7.462;2023-08-06T12:20:09;21.50;83.20
79065;DHT22;68469;51.502;7.462;2023-08-06T12:22:36;21.40;83.30
79065;DHT22;68469;51.502;7.462;2023-08-06T12:25:05;21.40;86.30
79065;DHT22;68469;51.502;7.462;2023-08-06T12:27:34;21.30;88.20
79065;DHT22;68469;51.502;7.462;2023-08-06T12:30:00;21.20;87.60
79065;DHT22;68469;51.502;7.462;2023-08-06T12:32:26;21.20;88.60
79065;DHT22;68469;51.502;7.462;2023-08-06T12:34:51;21.10;90.20
79065;DHT22;68469;51.502;7.462;2023-08-06T12:37:17;21.00;91.10
79065;DHT22;68469;51.502;7.462;2023-08-06T12:39:43;20.90;90.00
79065;DHT22;68469;51.502;7.462;2023-08-06T12:42:08;20.70;92.10
79065;DHT22;68469;51.502;7.462;2023-08-06T12:44:35;20.50;94.10
79065;DHT22;68469;51.502;7.462;2023-08-06T12:47:01;20.30;95.30
79065;DHT22;68469;51.502;7.462;2023-08-06T12:49:26;20.10;95.30
79065;DHT22;68469;51.502;7.462;2023-08-06T12:51:53;19.80;95.50
79065;DHT22;68469;51.502;7.462;2023-08-06T12:54:22;19.60;96.00
79065;DHT22;68469;51.502;7.462;2023-08-06T12:56:48;19.30;95.20
79065;DHT22;68469;51.502;7.462;2023-08-06T12:59:15;19.00;97.00
79065;DHT22;68469;51.502;7.462;2023-08-06T13:01:42;18.80;97.80
79065;DHT22;68469;51.502;7.462;2023-08-06T13:04:08;18.50;99.90
79065;DHT22;68469;51.502;7.462;2023-08-06T13:06:34;18.20;99.90
79065;DHT22;68469;51.502;7.462;2023-08-06T13:09:12;17.80;99.90
79065;DHT22;68469;51.502;7.462;2023-08-06T13:11:41;17.60;99.90
79065;DHT22;68469;51.502;7.462;2023-08-06T13:14:09;17.40;99.90
79065;DHT22;68469;51.502;7.462;2023-08-06T13:16:36;17.40;99.90
79065;DHT22;68469;51.502;7.462;2023-08-06T13:19:03;17.40;99.90
79065;DHT22;68469;51.502;7.462;2023-08-06T13:24:08;17.40;99.90
79065;DHT22;68469;51.502;7.462;2023-08-06T13:26:34;17.50;99.90
79065;DHT22;68469;51.502;7.462;2023-08-06T13:29:01;17.50;99.90
79065;DHT22;68469;51.502;7.462;2023-08-06T13:31:27;17.50;99.90
79065;DHT22;68469;51.502;7.462;2023-08-06T13:33:54;17.60;99.90
79065;DHT22;68469;51.502;7.462;2023-08-06T13:36:26;17.70;99.90
79065;DHT22;68469;51.502;7.462;2023-08-06T13:38:52;17.70;99.90
79065;DHT22;68469;51.502;7.462;2023-08-06T13:41:18;17.70;99.90
79065;DHT22;68469;51.502;7.462;2023-08-06T13:43:44;17.70;99.90
79065;DHT22;68469;51.502;7.462;2023-08-06T13:46:10;17.70;99.90
79065;DHT22;68469;51.502;7.462;2023-08-06T13:48:40;17.70;99.90
79065;DHT22;68469;51.502;7.462;2023-08-06T13:51:05;17.80;99.90
79065;DHT22;68469;51.502;7.462;2023-08-06T13:53:34;17.70;99.90
79065;DHT22;68469;51.502;7.462;2023-08-06T13:56:00;17.80;99.90
79065;DHT22;68469;51.502;7.462;2023-08-06T13:58:25;17.90;99.90
79065;DHT22;68469;51.502;7.462;2023-08-06T14:00:52;17.80;99.90
79065;DHT22;68469;51.502;7.462;2023-08-06T14:03:19;17.70;99.90
79065;DHT22;68469;51.502;7.462;2023-08-06T14:05:45;17.60;99.90
79065;DHT22;68469;51.502;7.462;2023-08-06T14:08:11;17.60;99.90
79065;DHT22;68469;51.502;7.462;2023-08-06T14:10:36;17.50;99.90
79065;DHT22;68469;51.502;7.462;2023-08-06T14:13:02;17.40;99.90
79065;DHT22;68469;51.502;7.462;2023-08-06T14:15:28;17.30;99.90
79065;DHT22;68469;51.502;7.462;2023-08-06T14:17:53;17.30;99.90
79065;DHT22;68469;51.502;7.462;2023-08-06T14:20:22;17.10;99.90
79065;DHT22;68469;51.502;7.462;2023-08-06T14:22:48;17.10;99.90
79065;DHT22;68469;51.502;7.462;2023-08-06T14:25:14;17.00;99.90
79065;DHT22;68469;51.502;7.462;2023-08-06T14:27:40;16.90;99.90
79065;DHT22;68469;51.502;7.462;2023-08-06T14:30:07;16.80;99.90
79065;DHT22;68469;51.502;7.462;2023-08-06T14:32:33;16.80;99.90
79065;DHT22;68469;51.502;7.462;2023-08-06T14:34:58;16.70;99.90
79065;DHT22;68469;51.502;7.462;2023-08-06T14:37:24;16.70;99.90
79065;DHT22;68469;51.502;7.462;2023-08-06T14:39:50;16.60;99.90
79065;DHT22;68469;51.502;7.462;2023-08-06T14:42:16;16.60;99.90
79065;DHT22;68469;51.502;7.462;2023-08-06T14:44:42;16.60;99.90
79065;DHT22;68469;51.502;7.462;2023-08-06T14:47:08;16.60;99.90
79065;DHT22;68469;51.502;7.462;2023-08-06T14:49:33;16.50;99.90
79065;DHT22;68469;51.502;7.462;2023-08-06T14:51:59;16.50;99.90
79065;DHT22;68469;51.502;7.462;2023-08-06T14:54:27;16.50;99.90
79065;DHT22;68469;51.502;7.462;2023-08-06T14:56:53;16.50;99.90
79065;DHT22;68469;51.502;7.462;2023-08-06T14:59:18;16.50;99.90
79065;DHT22;68469;51.502;7.462;2023-08-06T15:01:44;16.30;99.90
79065;DHT22;68469;51.502;7.462;2023-08-06T15:04:10;16.30;99.90
79065;DHT22;68469;51.502;7.462;2023-08-06T15:06:35;16.30;99.90
79065;DHT22;68469;51.502;7.462;2023-08-06T15:09:01;16.30;99.90
79065;DHT22;68469;51.502;7.462;2023-08-06T15:11:27;16.30;99.90
79065;DHT22;68469;51.502;7.462;2023-08-06T15:13:53;16.30;99.90
79065;DHT22;68469;51.502;7.462;2023-08-06T15:16:18;16.30;99.90
79065;DHT22;68469;51.502;7.462;2023-08-06T15:18:44;16.30;99.90
79065;DHT22;68469;51.502;7.462;2023-08-06T15:21:10;16.30;99.90
79065;DHT22;68469;51.502;7.462;2023-08-06T15:23:35;16.30;99.90
79065;DHT22;68469;51.502;7.462;2023-08-06T15:26:02;16.30;99.90
79065;DHT22;68469;51.502;7.462;2023-08-06T15:28:28;16.20;99.90
79065;DHT22;68469;51.502;7.462;2023-08-06T15:30:54;16.20;99.90
79065;DHT22;68469;51.502;7.462;2023-08-06T15:33:21;16.20;99.90
79065;DHT22;68469;51.502;7.462;2023-08-06T15:35:47;16.10;99.90
79065;DHT22;68469;51.502;7.462;2023-08-06T15:38:13;16.00;99.90
79065;DHT22;68469;51.502;7.462;2023-08-06T15:40:38;16.00;99.90
79065;DHT22;68469;51.502;7.462;2023-08-06T15:43:04;16.00;99.90